createdAt,value
2024-03-20T00:00:22.444Z,97430.30
2024-03-20T00:02:49.769Z,97420.34
2024-03-20T00:05:22.713Z,97417.48
2024-03-20T00:07:50.103Z,97410.27
2024-03-20T00:10:18.072Z,97402.70
2024-03-20T00:12:50.258Z,97391.35
2024-03-20T00:15:17.701Z,97380.77
2024-03-20T00:17:46.998Z,97374.88
2024-03-20T00:20:18.448Z,97362.08
2024-03-20T00:22:46.008Z,97357.35
2024-03-20T00:25:14.287Z,97346.56
2024-03-20T00:27:41.847Z,97332.36
2024-03-20T00:30:11.380Z,97319.20
2024-03-20T00:32:38.913Z,97320.51
2024-03-20T00:35:09.197Z,97321.46
2024-03-20T00:37:36.694Z,97317.13
2024-03-20T00:40:05.392Z,97318.20
2024-03-20T00:42:32.761Z,97317.25
2024-03-20T00:45:00.908Z,97309.69
2024-03-20T00:47:28.480Z,97309.45
2024-03-20T00:49:55.851Z,97301.14
2024-03-20T00:52:26.083Z,97298.67
2024-03-20T00:54:56.782Z,97291.30
2024-03-20T00:57:28.339Z,97286.73
2024-03-20T00:59:55.999Z,97275.92
2024-03-20T01:02:24.276Z,97271.65
2024-03-20T01:04:51.941Z,97265.85
2024-03-20T01:07:19.397Z,97263.36
2024-03-20T01:09:47.065Z,97259.51
2024-03-20T01:12:14.517Z,97254.79
2024-03-20T01:14:41.769Z,97251.34
2024-03-20T01:17:09.228Z,97246.05
2024-03-20T01:19:36.692Z,97241.31
2024-03-20T01:22:04.160Z,97235.44
2024-03-20T01:24:40.470Z,97223.52
2024-03-20T01:27:07.661Z,97217.79
2024-03-20T01:29:35.015Z,97214.64
2024-03-20T01:32:02.373Z,97215.21
2024-03-20T01:34:30.033Z,97209.64
2024-03-20T01:36:57.697Z,97202.33
2024-03-20T01:39:25.917Z,97199.63
2024-03-20T01:41:53.148Z,97200.70
2024-03-20T01:44:20.489Z,97197.91
2024-03-20T01:46:48.342Z,97191.95
2024-03-20T01:49:18.260Z,97193.52
2024-03-20T01:51:45.932Z,97188.78
2024-03-20T02:00:28.825Z,97088.75
2024-03-20T02:03:05.168Z,96980.45
2024-03-20T02:05:35.376Z,97006.61
2024-03-20T02:08:03.050Z,97019.88
2024-03-20T02:10:33.401Z,97029.17
2024-03-20T02:15:53.782Z,97027.23
2024-03-20T02:18:21.466Z,97035.70
2024-03-20T02:20:51.689Z,97039.84
2024-03-20T02:23:24.616Z,97044.30
2024-03-20T02:26:10.025Z,97039.66
2024-03-20T02:28:42.875Z,97038.55
2024-03-20T02:31:15.915Z,97045.10
2024-03-20T02:33:49.907Z,97043.58
2024-03-20T02:36:17.583Z,97044.86
2024-03-20T02:38:45.554Z,97047.16
2024-03-20T02:41:19.857Z,97044.23
2024-03-20T02:43:47.522Z,97037.83
2024-03-20T02:46:16.730Z,97034.71
2024-03-20T02:48:51.662Z,97030.19
2024-03-20T02:51:19.316Z,97034.44
2024-03-20T02:53:50.034Z,97029.88
2024-03-20T02:56:34.200Z,97016.08
2024-03-20T02:59:06.063Z,97014.27
2024-03-20T03:01:47.955Z,97018.91
2024-03-20T03:04:15.826Z,97009.77
2024-03-20T03:06:46.903Z,97010.27
2024-03-20T03:09:20.773Z,97004.55
2024-03-20T03:11:48.540Z,97002.19
2024-03-20T03:14:17.960Z,96999.16
2024-03-20T03:16:48.987Z,96996.83
2024-03-20T03:19:18.807Z,96998.33
2024-03-20T03:21:46.666Z,96996.70
2024-03-20T03:24:15.660Z,96996.80
2024-03-20T03:26:46.712Z,96994.11
2024-03-20T03:29:14.974Z,96992.33
2024-03-20T03:31:45.939Z,96988.95
2024-03-20T03:34:19.158Z,96989.20
2024-03-20T03:36:49.208Z,96987.33
2024-03-20T03:39:17.302Z,96989.61
2024-03-20T03:41:49.176Z,96992.58
2024-03-20T03:44:24.398Z,96993.89
2024-03-20T03:46:52.884Z,96997.91
2024-03-20T03:49:29.563Z,96997.83
2024-03-20T03:51:57.329Z,96995.83
2024-03-20T03:54:24.991Z,96999.98
2024-03-20T03:56:53.574Z,96999.86
2024-03-20T03:59:25.332Z,97003.95
2024-03-20T04:02:05.407Z,97001.40
2024-03-20T04:04:36.802Z,96998.25
2024-03-20T04:07:05.695Z,96996.04
2024-03-20T04:09:33.796Z,97000.83
2024-03-20T04:12:05.458Z,96997.52
2024-03-20T04:14:33.838Z,96994.91
2024-03-20T04:17:07.272Z,96997.61
2024-03-20T04:27:23.400Z,96911.07
2024-03-20T04:29:51.468Z,96784.88
2024-03-20T04:32:21.935Z,96825.49
2024-03-20T04:35:01.009Z,96845.36
2024-03-20T04:37:29.192Z,96849.47
2024-03-20T04:40:18.965Z,96867.79
2024-03-20T04:42:47.044Z,96868.90
2024-03-20T04:45:14.916Z,96877.35
2024-03-20T04:47:44.777Z,96880.72
2024-03-20T04:50:13.226Z,96887.43
2024-03-20T04:52:43.524Z,96886.31
2024-03-20T04:55:11.354Z,96885.29
2024-03-20T04:57:39.360Z,96892.32
2024-03-20T05:00:24.226Z,96890.05
2024-03-20T05:10:35.967Z,96818.16
2024-03-20T05:13:24.011Z,96664.81
2024-03-20T05:15:51.983Z,96707.77
2024-03-20T05:18:23.119Z,96724.77
2024-03-20T05:21:06.008Z,96730.79
2024-03-20T05:23:37.758Z,96746.38
2024-03-20T05:26:10.397Z,96757.27
2024-03-20T05:28:38.454Z,96759.41
2024-03-20T05:31:26.392Z,96765.46
2024-03-20T05:33:57.123Z,96758.56
2024-03-20T05:36:27.252Z,96773.23
2024-03-20T05:38:55.930Z,96779.99
2024-03-20T05:41:23.899Z,96780.58
2024-03-20T05:43:55.017Z,96781.36
2024-03-20T05:49:13.544Z,96784.05
2024-03-20T05:51:42.372Z,96791.00
2024-03-20T05:54:16.015Z,96795.36
2024-03-20T05:56:51.311Z,96800.44
2024-03-20T06:01:25.064Z,96865.58
2024-03-20T06:03:55.822Z,96669.59
2024-03-20T06:06:31.801Z,96673.95
2024-03-20T06:12:07.579Z,96678.38
2024-03-20T06:14:41.812Z,96691.73
2024-03-20T06:17:12.379Z,96707.51
2024-03-20T06:19:40.364Z,96714.37
2024-03-20T06:22:08.013Z,96718.36
2024-03-20T06:24:41.013Z,96716.98
2024-03-20T06:27:08.774Z,96720.28
2024-03-20T06:29:39.153Z,96724.95
2024-03-20T06:32:09.025Z,96726.20
2024-03-20T06:34:37.180Z,96729.73
2024-03-20T06:37:30.807Z,96734.71
2024-03-20T06:39:58.619Z,96729.30
2024-03-20T06:42:52.902Z,96738.52
2024-03-20T06:45:24.055Z,96731.92
2024-03-20T06:47:54.800Z,96744.75
2024-03-20T06:50:25.106Z,96761.71
2024-03-20T06:53:01.884Z,96755.70
2024-03-20T06:55:37.633Z,96750.52
2024-03-20T06:58:07.348Z,96757.71
2024-03-20T07:00:35.023Z,96759.14
2024-03-20T07:03:07.388Z,96753.60
2024-03-20T07:06:05.868Z,96749.75
2024-03-20T07:08:39.168Z,96728.19
2024-03-20T07:11:47.750Z,96728.80
2024-03-20T07:14:28.655Z,96713.13
2024-03-20T07:17:04.720Z,96712.65
2024-03-20T07:19:33.929Z,96706.14
2024-03-20T07:22:09.786Z,96703.67
2024-03-20T07:24:41.325Z,96696.81
2024-03-20T07:27:18.907Z,96698.28
2024-03-20T07:29:51.401Z,96694.42
2024-03-20T07:32:31.204Z,96696.02
2024-03-20T07:35:16.331Z,96702.66
2024-03-20T07:37:44.391Z,96694.36
2024-03-20T07:40:22.893Z,96696.90
2024-03-20T07:42:51.494Z,96682.46
2024-03-20T07:55:34.994Z,96408.45
2024-03-20T07:58:56.630Z,96422.39
2024-03-20T08:01:30.242Z,96450.41
2024-03-20T08:04:17.905Z,96468.90
2024-03-20T08:07:02.534Z,96463.23
2024-03-20T08:09:54.172Z,96464.54
2024-03-20T08:13:20.446Z,96452.93
2024-03-20T08:15:53.463Z,96442.05
2024-03-20T08:18:37.106Z,96449.58
2024-03-20T08:22:04.053Z,96449.96
2024-03-20T08:24:51.991Z,96448.77
2024-03-20T08:27:28.809Z,96473.49
2024-03-20T08:30:30.655Z,96479.85
2024-03-20T08:33:37.318Z,96480.16
2024-03-20T08:36:13.472Z,96489.63
2024-03-20T08:43:10.455Z,96496.96
2024-03-20T08:46:52.043Z,96485.09
2024-03-20T08:50:10.234Z,96468.64
2024-03-20T08:53:36.078Z,96476.30
2024-03-20T08:56:33.784Z,96477.65
2024-03-20T09:06:07.617Z,96489.98
2024-03-20T09:13:07.040Z,96527.02
2024-03-20T09:16:25.082Z,96518.23
2024-03-20T09:22:46.324Z,96525.77
2024-03-20T09:25:21.490Z,96505.15
2024-03-20T09:28:03.186Z,96491.29
2024-03-20T09:30:38.768Z,96496.36
2024-03-20T09:33:33.606Z,96497.77
2024-03-20T09:36:53.422Z,96478.73
2024-03-20T09:40:35.021Z,96470.65
2024-03-20T09:43:53.575Z,96434.48
2024-03-20T09:46:31.375Z,96449.09
2024-03-20T09:49:42.010Z,96443.05
2024-03-20T09:52:31.889Z,96452.48
2024-03-20T09:54:59.590Z,96477.46
2024-03-20T09:58:09.312Z,96505.05
2024-03-20T10:03:28.124Z,96546.02
2024-03-20T10:06:50.903Z,96583.69
2024-03-20T10:09:22.542Z,96614.95
2024-03-20T10:11:59.916Z,96640.35
2024-03-20T10:15:25.179Z,96649.23
2024-03-20T10:18:33.697Z,96648.70
2024-03-20T10:21:36.094Z,96645.23
2024-03-20T10:27:28.856Z,96602.91
2024-03-20T10:30:00.238Z,96623.45
2024-03-20T10:32:33.675Z,96657.50
2024-03-20T10:35:21.793Z,96666.64
2024-03-20T10:38:15.766Z,96662.91
2024-03-20T10:42:01.880Z,96628.67
2024-03-20T10:45:09.980Z,96625.95
2024-03-20T10:47:47.113Z,96632.16
2024-03-20T10:51:16.575Z,96648.87
2024-03-20T10:54:05.743Z,96656.49
2024-03-20T11:00:54.447Z,96695.17
2024-03-20T11:11:22.022Z,96791.15
2024-03-20T11:17:51.084Z,96832.55
2024-03-20T11:20:46.786Z,96834.77
2024-03-20T11:24:03.804Z,96823.13
2024-03-20T11:30:39.009Z,96827.56
2024-03-20T11:33:12.686Z,96832.11
2024-03-20T11:44:47.800Z,96786.55
2024-03-20T11:47:36.636Z,96821.84
2024-03-20T11:51:10.149Z,96870.16
2024-03-20T11:53:46.090Z,96901.14
2024-03-20T11:57:14.439Z,96922.61
2024-03-20T12:00:16.489Z,96925.35
2024-03-20T12:08:00.952Z,96918.20
2024-03-20T12:10:55.027Z,96907.56
2024-03-20T12:13:31.396Z,96912.77
2024-03-20T12:16:32.338Z,96930.97
2024-03-20T12:19:51.468Z,96922.06
2024-03-20T12:22:22.613Z,96913.02
2024-03-20T12:25:14.322Z,96908.52
2024-03-20T12:28:12.525Z,96894.02
2024-03-20T12:33:42.973Z,96879.47
2024-03-20T12:36:28.611Z,96897.04
2024-03-20T12:40:41.196Z,96917.76
2024-03-20T12:47:14.542Z,96982.00
2024-03-20T12:49:57.834Z,97022.73
2024-03-20T12:56:17.676Z,97063.22
2024-03-20T12:59:07.612Z,97099.40
2024-03-20T13:01:35.836Z,97115.02
2024-03-20T13:09:33.146Z,97129.05
2024-03-20T13:12:07.917Z,97156.30
2024-03-20T13:20:53.938Z,97183.41
2024-03-20T13:23:29.726Z,97209.27
2024-03-20T13:26:05.838Z,97220.23
2024-03-20T13:28:34.180Z,97231.23
2024-03-20T13:31:09.322Z,97233.77
2024-03-20T13:33:41.591Z,97241.23
2024-03-20T13:36:28.038Z,97249.67
2024-03-20T13:39:19.322Z,97250.39
2024-03-20T13:41:59.566Z,97255.05
2024-03-20T13:44:38.378Z,97267.35
2024-03-20T13:47:27.781Z,97276.85
2024-03-20T13:50:02.296Z,97277.50
2024-03-20T13:52:37.238Z,97293.31
2024-03-20T13:55:09.595Z,97300.00
2024-03-20T13:57:49.969Z,97307.59
2024-03-20T14:00:18.961Z,97315.27
2024-03-20T14:02:50.368Z,97321.48
2024-03-20T14:05:23.708Z,97324.73
2024-03-20T14:07:59.144Z,97321.66
2024-03-20T14:10:30.086Z,97319.98
2024-03-20T14:13:10.528Z,97331.58
2024-03-20T14:15:45.378Z,97332.27
2024-03-20T14:18:14.011Z,97336.97
2024-03-20T14:20:46.831Z,97342.79
2024-03-20T14:23:20.951Z,97348.03
2024-03-20T14:25:54.454Z,97353.05
2024-03-20T14:28:25.911Z,97360.96
2024-03-20T14:31:04.372Z,97372.17
2024-03-20T14:33:57.481Z,97376.95
2024-03-20T14:36:27.320Z,97383.56
2024-03-20T14:39:12.367Z,97399.83
2024-03-20T14:41:45.763Z,97402.15
2024-03-20T14:44:15.068Z,97416.63
2024-03-20T14:46:48.955Z,97423.58
2024-03-20T14:49:30.296Z,97431.36
2024-03-20T14:52:04.774Z,97438.10
2024-03-20T14:54:39.035Z,97439.83
2024-03-20T14:57:21.269Z,97450.61
2024-03-20T14:59:55.617Z,97459.76
2024-03-20T15:02:34.034Z,97467.30
2024-03-20T15:05:15.244Z,97476.55
2024-03-20T15:08:42.619Z,97488.73
2024-03-20T15:11:21.354Z,97484.77
2024-03-20T15:14:01.860Z,97502.63
2024-03-20T15:16:32.830Z,97508.07
2024-03-20T15:19:01.188Z,97518.36
2024-03-20T15:21:34.878Z,97522.29
2024-03-20T15:24:07.698Z,97526.30
2024-03-20T15:26:41.683Z,97532.95
2024-03-20T15:29:18.862Z,97537.52
2024-03-20T15:31:53.595Z,97546.02
2024-03-20T15:34:30.269Z,97551.95
2024-03-20T15:37:02.952Z,97564.12
2024-03-20T15:39:37.780Z,97567.37
2024-03-20T15:42:28.904Z,97574.02
2024-03-20T15:45:02.910Z,97575.38
2024-03-20T15:47:41.617Z,97585.41
2024-03-20T15:50:19.555Z,97593.76
2024-03-20T15:52:48.112Z,97605.61
2024-03-20T15:55:19.544Z,97621.70
2024-03-20T15:57:51.329Z,97622.08
2024-03-20T16:00:26.723Z,97629.76
2024-03-20T16:02:58.649Z,97633.67
2024-03-20T16:05:37.289Z,97639.52
2024-03-20T16:08:11.012Z,97639.71
2024-03-20T16:10:39.919Z,97651.34
2024-03-20T16:13:08.836Z,97659.34
2024-03-20T16:15:36.511Z,97664.84
2024-03-20T16:18:28.742Z,97672.02
2024-03-20T16:21:11.868Z,97671.21
2024-03-20T16:23:50.487Z,97689.19
2024-03-20T16:26:44.259Z,97694.44
2024-03-20T16:29:30.168Z,97693.20
2024-03-20T16:32:05.811Z,97701.24
2024-03-20T16:34:45.348Z,97708.09
2024-03-20T16:37:34.200Z,97710.86
2024-03-20T16:40:13.108Z,97716.17
2024-03-20T16:42:50.636Z,97722.55
2024-03-20T16:45:38.761Z,97728.40
2024-03-20T16:48:13.648Z,97730.16
2024-03-20T16:50:44.031Z,97737.67
2024-03-20T16:53:16.160Z,97738.17
2024-03-20T16:55:58.206Z,97742.55
2024-03-20T16:58:37.521Z,97747.61
2024-03-20T17:04:22.320Z,97758.83
2024-03-20T17:07:09.626Z,97760.33
2024-03-20T17:09:48.450Z,97775.64
2024-03-20T17:12:25.332Z,97780.75
2024-03-20T17:14:59.860Z,97783.70
2024-03-20T17:17:29.276Z,97785.48
2024-03-20T17:20:07.641Z,97787.64
2024-03-20T17:22:47.576Z,97786.66
2024-03-20T17:25:32.247Z,97787.66
2024-03-20T17:28:08.412Z,97786.84
2024-03-20T17:30:49.525Z,97791.82
2024-03-20T17:33:31.422Z,97794.58
2024-03-20T17:36:00.411Z,97797.66
2024-03-20T17:38:29.410Z,97804.83
2024-03-20T17:41:12.224Z,97803.05
2024-03-20T17:43:58.594Z,97799.34
2024-03-20T17:46:40.932Z,97803.31
2024-03-20T17:49:14.846Z,97801.52
2024-03-20T17:51:59.174Z,97804.99
2024-03-20T17:54:28.294Z,97804.42
2024-03-20T17:56:57.149Z,97812.96
2024-03-20T17:59:30.284Z,97815.65
2024-03-20T18:02:09.713Z,97818.73
2024-03-20T18:05:07.108Z,97819.10
2024-03-20T18:07:58.186Z,97818.41
2024-03-20T18:10:42.177Z,97817.36
2024-03-20T18:13:36.520Z,97829.23
2024-03-20T18:19:32.360Z,97816.28
2024-03-20T18:22:10.978Z,97736.77
2024-03-20T18:24:46.529Z,97755.25
2024-03-20T18:27:20.745Z,97775.93
2024-03-20T18:29:57.653Z,97780.14
2024-03-20T18:32:30.940Z,97789.46
2024-03-20T18:35:11.225Z,97799.98
2024-03-20T18:37:44.173Z,97807.55
2024-03-20T18:40:17.569Z,97818.21
2024-03-20T18:42:47.391Z,97826.56
2024-03-20T18:45:38.092Z,97834.60
2024-03-20T18:48:10.077Z,97835.78
2024-03-20T18:50:40.683Z,97845.48
2024-03-20T18:53:10.705Z,97855.91
2024-03-20T18:55:47.160Z,97857.63
2024-03-20T18:58:20.352Z,97863.39
2024-03-20T19:01:19.522Z,97873.15
2024-03-20T19:04:02.052Z,97873.88
2024-03-20T19:06:38.228Z,97886.60
2024-03-20T19:09:21.574Z,97891.82
2024-03-20T19:11:50.207Z,97893.36
2024-03-20T19:14:21.591Z,97903.47
2024-03-20T19:17:09.490Z,97909.86
2024-03-20T19:27:38.889Z,97911.07
2024-03-20T19:30:10.239Z,97841.89
2024-03-20T19:32:46.145Z,97864.46
2024-03-20T19:35:20.247Z,97880.78
2024-03-20T19:38:16.447Z,97893.61
2024-03-20T19:41:03.873Z,97897.54
2024-03-20T19:43:44.941Z,97908.55
2024-03-20T19:46:29.192Z,97921.23
2024-03-20T19:49:27.374Z,97925.48
2024-03-20T19:52:12.847Z,97936.41
2024-03-20T19:55:10.832Z,97945.95
2024-03-20T19:57:54.153Z,97955.75
2024-03-20T20:06:43.672Z,97970.70
2024-03-20T20:09:40.512Z,97973.68
2024-03-20T20:12:26.407Z,97983.56
2024-03-20T20:15:01.665Z,97988.60
2024-03-20T20:17:46.411Z,97994.89
2024-03-20T20:20:19.869Z,98002.29
2024-03-20T20:23:06.328Z,98008.61
2024-03-20T20:25:49.033Z,98012.64
2024-03-20T20:28:31.635Z,98017.18
2024-03-20T20:31:22.765Z,98016.77
2024-03-20T20:33:59.482Z,98024.73
2024-03-20T20:36:29.346Z,98028.48
2024-03-20T20:39:11.085Z,98030.42
2024-03-20T20:41:45.386Z,98031.20
2024-03-20T20:44:17.107Z,98034.05
2024-03-20T20:47:06.999Z,98035.20
2024-03-20T20:49:34.658Z,98033.02
2024-03-20T20:52:05.307Z,98038.30
2024-03-20T20:54:34.918Z,98036.48
2024-03-20T20:57:06.317Z,98039.73
2024-03-20T20:59:33.918Z,98043.99
2024-03-20T21:02:21.517Z,98047.41
2024-03-20T21:05:12.953Z,98043.44
2024-03-20T21:08:04.889Z,98043.02
2024-03-20T21:10:55.808Z,98045.43
2024-03-20T21:13:46.695Z,98044.96
2024-03-20T21:16:35.667Z,98042.09
2024-03-20T21:19:34.363Z,98046.94
2024-03-20T21:22:06.141Z,98046.41
2024-03-20T21:24:39.836Z,98055.48
2024-03-20T21:27:13.236Z,98053.51
2024-03-20T21:29:41.307Z,98057.30
2024-03-20T21:32:19.859Z,98056.30
2024-03-20T21:34:53.615Z,98054.23
2024-03-20T21:37:28.653Z,98061.50
2024-03-20T21:40:08.130Z,98060.65
2024-03-20T21:42:38.757Z,98060.85
2024-03-20T21:45:19.292Z,98065.13
2024-03-20T21:47:57.397Z,98065.34
2024-03-20T21:50:30.177Z,98066.45
2024-03-20T21:53:00.518Z,98072.21
2024-03-20T21:55:30.581Z,98076.96
2024-03-20T21:58:14.338Z,98079.80
2024-03-20T22:01:22.074Z,98079.59
2024-03-20T22:04:01.001Z,98073.63
2024-03-20T22:07:02.761Z,98077.88
2024-03-20T22:10:05.014Z,98084.13
2024-03-20T22:12:22.665Z,98082.19
2024-03-20T22:14:56.872Z,98092.11
2024-03-20T22:17:54.382Z,98087.35
2024-03-20T22:20:52.832Z,98084.54
2024-03-20T22:23:28.464Z,98087.34
2024-03-20T22:26:00.085Z,98098.35
2024-03-20T22:28:33.929Z,98098.52
2024-03-20T22:31:07.327Z,98099.77
2024-03-20T22:33:41.071Z,98100.70
2024-03-20T22:36:21.710Z,98105.03
2024-03-20T22:38:49.666Z,98104.63
2024-03-20T22:41:23.095Z,98103.31
2024-03-20T22:44:17.080Z,98103.90
2024-03-20T22:46:54.959Z,98098.86
2024-03-20T22:49:37.682Z,98103.15
2024-03-20T22:52:17.820Z,98106.69
2024-03-20T22:54:46.300Z,98107.46
2024-03-20T22:57:18.703Z,98109.09
2024-03-20T23:00:01.798Z,98106.79
2024-03-20T23:02:39.707Z,98103.82
2024-03-20T23:05:14.062Z,98111.11
2024-03-20T23:07:51.786Z,98110.23
2024-03-20T23:10:51.336Z,98115.15
2024-03-20T23:13:24.538Z,98111.37
2024-03-20T23:16:04.063Z,98116.14
2024-03-20T23:18:52.315Z,98120.38
2024-03-20T23:21:32.098Z,98118.67
2024-03-20T23:24:26.083Z,98120.52
2024-03-20T23:27:05.571Z,98124.86
2024-03-20T23:30:04.204Z,98124.11
2024-03-20T23:32:39.102Z,98121.27
2024-03-20T23:35:20.083Z,98127.34
2024-03-20T23:37:53.381Z,98128.82
2024-03-20T23:40:32.393Z,98131.71
2024-03-20T23:43:08.761Z,98130.56
2024-03-20T23:45:41.339Z,98127.16
2024-03-20T23:48:16.929Z,98132.61
2024-03-20T23:51:07.745Z,98126.60
2024-03-20T23:53:48.686Z,98128.04
2024-03-20T23:56:23.188Z,98127.58
2024-03-20T23:59:58.334Z,98121.09
